Latest Weather Observations for Cessnock Airport

IDN60801

Issued at 11:32 pm EDT Friday 12 February 2016 (issued every 30 minutes, with the page automatically refreshed every 10 minutes)

About weather observations | Map of weather stations | Latest weather observations for NSW | Other Formats
Station Details ID: 061260 Name: CESSNOCK AIRPORT AWS Lat: -32.79 Lon: 151.34 Height: 61.0 m
Data from the previous 72 hours. | See also: Recent months at Cessnock Airport
Date/Time
EDT
Temp
°C
App
Temp
°C
Dew
Point
Rel
Hum
%
Delta-T
°C
Wind Press
QNH
hPa
Press
MSL
hPa
Rain
since 9 am
mm
Dir
 
Spd
km/h
Gust
km/h
Spd
kts
Gust
kts
12/11:30pm 20.5 22.0 18.8 90 1.1 S 9 11 5 6 1014.9 1014.6 0.0
12/11:00pm 20.7 22.2 18.8 89 1.2 S 9 13 5 7 1015.0 1014.7 0.0
12/10:30pm 20.6 21.8 18.2 86 1.5 S 9 13 5 7 1015.0 1014.7 0.0
12/10:00pm 21.1 22.0 18.5 85 1.6 S 11 13 6 7 1015.2 1014.9 0.0
12/09:30pm 21.4 22.2 18.2 82 2.0 SSE 11 15 6 8 1015.1 1014.8 0.0
12/09:00pm 21.9 22.7 18.1 79 2.4 SSE 11 13 6 7 1014.9 1014.6 0.0
12/08:30pm 23.1 23.8 18.0 73 3.2 SE 11 13 6 7 1014.7 1014.4 0.0
12/08:00pm 23.9 24.2 17.9 69 3.8 SE 13 17 7 9 1014.5 1014.2 0.0
12/07:30pm 24.6 25.0 17.3 64 4.5 SE 11 15 6 8 1014.2 1013.9 0.0
12/07:00pm 25.7 25.1 17.6 61 5.1 ESE 17 28 9 15 1013.9 1013.6 0.0
12/06:30pm 26.6 25.7 18.2 60 5.3 ESE 20 30 11 16 1013.5 1013.2 0.0
12/06:00pm 27.5 27.2 18.2 57 5.9 ESE 17 24 9 13 1013.5 1013.2 0.0
12/05:30pm 27.9 26.3 17.4 52 6.6 E 22 28 12 15 1013.3 1013.0 0.0
12/05:00pm 28.8 28.0 18.0 52 6.9 ESE 19 28 10 15 1013.1 1012.8 0.0
12/04:30pm 29.2 28.3 17.7 50 7.3 ESE 19 26 10 14 1013.2 1012.9 0.0
12/04:00pm 28.6 27.6 16.5 48 7.5 ESE 17 24 9 13 1013.4 1013.1 0.0
12/03:30pm 29.4 29.4 17.2 47 7.7 ESE 13 24 7 13 1013.5 1013.2 0.0
12/03:00pm 28.7 29.1 16.3 47 7.7 ENE 9 19 5 10 1013.7 1013.4 0.0
12/02:30pm 29.4 29.6 17.6 49 7.5 ENE 13 20 7 11 1014.1 1013.8 0.0
12/02:00pm 29.1 28.7 16.3 46 8.0 ENE 13 20 7 11 1014.4 1014.1 0.0
12/01:30pm 28.3 28.9 17.8 53 6.7 ESE 11 22 6 12 1014.9 1014.6 0.0
12/01:00pm 28.3 28.2 16.9 50 7.1 SE 13 20 7 11 1015.2 1014.9 0.0
12/12:30pm 28.4 28.0 16.3 47 7.5 ENE 13 24 7 13 1015.5 1015.2 0.0
12/12:00pm 27.9 27.9 17.1 51 6.8 E 13 26 7 14 1015.9 1015.6 0.0
12/11:30am 27.0 27.3 16.0 51 6.8 E 9 15 5 8 1016.2 1015.9 0.0
12/11:00am 26.8 27.0 16.7 54 6.3 E 11 17 6 9 1016.3 1016.0 0.0
12/10:30am 26.1 26.2 16.6 55 5.9 ENE 11 19 6 10 1016.4 1016.1 0.0
12/10:00am 25.8 26.9 18.0 62 4.9 E 9 15 5 8 1016.3 1016.0 0.0
12/09:30am 24.6 25.5 18.5 69 3.9 SE 11 15 6 8 1016.4 1016.1 0.0
12/09:00am 23.2 24.9 18.5 75 3.0 SSE 7 13 4 7 1016.3 1016.0 0.0
12/08:30am 22.1 23.1 18.7 81 2.1 SSE 11 13 6 7 1016.2 1015.9 0.0
12/08:00am 20.9 23.0 19.4 91 1.0 SSW 7 11 4 6 1015.9 1015.6 0.0
12/07:30am 19.1 22.3 18.8 98 0.2 CALM 0 0 0 0 1015.5 1015.2 0.0
12/07:00am 17.3 18.6 17.0 98 0.2 SE 6 7 3 4 1015.2 1014.9 0.0
12/06:30am 17.5 20.0 17.2 98 0.2 CALM 0 6 0 3 1014.9 1014.6 0.0
12/06:00am 17.1 18.0 16.5 96 0.4 SSE 7 9 4 5 1014.7 1014.4 0.0
12/05:30am 18.1 20.6 17.3 95 0.5 CALM 0 6 0 3 1014.4 1014.1 0.0
12/05:00am 18.8 20.3 18.1 96 0.4 S 7 9 4 5 1014.2 1013.9 0.0
12/04:30am 19.0 19.9 18.5 97 0.3 SW 11 13 6 7 1014.1 1013.8 0.0
12/04:00am 18.9 20.3 17.9 94 0.6 S 7 11 4 6 1014.0 1013.7 0.0
12/03:30am 19.4 20.6 18.2 93 0.7 SSE 9 11 5 6 1014.1 1013.8 0.0
12/03:00am 19.7 21.1 18.7 94 0.6 SSW 9 11 5 6 1014.3 1014.0 0.0
12/02:30am 19.7 21.1 18.7 94 0.6 SSW 9 13 5 7 1014.3 1014.0 0.0
12/02:00am 20.2 22.1 19.0 93 0.8 SSW 7 9 4 5 1014.5 1014.2 0.0
12/01:30am 20.3 22.0 18.6 90 1.1 SE 7 9 4 5 1014.6 1014.3 0.0
12/01:00am 20.9 22.4 18.8 88 1.3 SSE 9 11 5 6 1014.8 1014.5 0.0
12/12:30am 21.5 23.1 19.2 87 1.5 SE 9 13 5 7 1014.9 1014.6 0.0
12/12:00am 21.9 24.0 19.3 85 1.7 ESE 7 11 4 6 1015.1 1014.8 0.0
 
Date/Time
EDT
Temp
°C
App
Temp
°C
Dew
Point
Rel
Hum
%
Delta-T
°C
Wind Press
QNH
hPa
Press
MSL
hPa
Rain
since 9 am
mm
Dir
 
Spd
km/h
Gust
km/h
Spd
kts
Gust
kts
11/11:30pm 21.7 22.6 19.3 86 1.5 S 13 17 7 9 1015.2 1014.9 0.0
11/11:00pm 21.5 22.4 19.2 87 1.5 SSE 13 17 7 9 1015.2 1014.9 0.0
11/10:30pm 21.6 23.2 19.2 86 1.5 SSE 9 11 5 6 1015.4 1015.1 0.0
11/10:00pm 22.4 24.1 19.4 83 1.9 SE 9 11 5 6 1015.3 1015.0 0.0
11/09:30pm 22.0 23.6 19.2 84 1.8 SSE 9 11 5 6 1015.4 1015.1 0.0
11/09:00pm 22.5 24.2 19.3 82 2.0 SSW 9 11 5 6 1015.0 1014.7 0.0
11/08:30pm 22.8 24.3 18.8 78 2.5 S 9 15 5 8 1014.7 1014.4 0.0
11/08:00pm 24.2 25.0 19.1 73 3.3 SE 13 17 7 9 1014.3 1014.0 0.0
11/07:30pm 24.7 24.8 19.1 71 3.6 SE 17 22 9 12 1013.8 1013.5 0.0
11/07:00pm 25.3 25.0 19.2 69 3.9 SE 19 24 10 13 1012.9 1012.6 0.0
11/06:30pm 26.1 25.3 18.0 61 5.1 SE 19 28 10 15 1012.3 1012.0 0.0
11/06:00pm 26.9 26.6 18.2 59 5.5 SE 17 24 9 13 1012.3 1012.0 0.0
11/05:30pm 27.6 26.5 17.7 54 6.3 ESE 20 24 11 13 1012.2 1011.9 0.0
11/05:00pm 28.0 26.9 17.8 54 6.5 E 20 28 11 15 1012.3 1012.0 0.0
11/04:30pm 28.7 28.1 18.5 54 6.6 E 19 24 10 13 1012.3 1012.0 0.0
11/04:00pm 29.0 28.4 18.4 52 6.8 ESE 19 26 10 14 1012.5 1012.2 0.0
11/03:30pm 29.3 28.4 17.8 50 7.3 E 19 30 10 16 1012.8 1012.5 0.0
11/03:00pm 29.0 28.6 18.1 51 7.0 ESE 17 26 9 14 1013.0 1012.7 0.0
11/02:30pm 29.3 29.6 18.7 52 6.8 E 15 26 8 14 1013.3 1013.0 0.0
11/02:00pm 29.6 30.2 16.8 46 8.0 E 9 17 5 9 1013.4 1013.1 0.0
11/01:30pm 28.8 28.0 15.0 43 8.4 E 13 22 7 12 1013.8 1013.5 0.0
11/01:00pm 28.0 26.8 15.0 45 7.9 ESE 15 24 8 13 1013.8 1013.5 0.0
11/12:30pm 27.3 27.9 16.9 53 6.5 ESE 9 15 5 8 1014.0 1013.7 0.0
11/12:00pm 26.8 26.9 16.4 53 6.4 SE 11 17 6 9 1014.3 1014.0 0.0
11/11:30am 26.1 27.1 17.7 60 5.3 SSE 9 19 5 10 1014.4 1014.1 0.0
11/11:00am 25.3 26.1 17.2 61 5.0 ESE 9 20 5 11 1014.5 1014.2 0.0
11/10:30am 25.1 26.5 17.8 64 4.6 E 7 13 4 7 1014.7 1014.4 0.0
11/10:00am 24.2 25.6 17.9 68 4.0 ESE 7 13 4 7 1014.7 1014.4 0.0
11/09:30am 22.9 24.5 18.2 75 2.9 SSE 7 13 4 7 1014.7 1014.4 0.0
11/09:00am 21.9 23.3 17.7 77 2.6 SE 7 11 4 6 1014.8 1014.5 0.0
11/08:30am 21.5 22.8 17.5 78 2.5 ESE 7 11 4 6 1014.6 1014.3 0.0
11/08:00am 19.3 21.7 17.1 87 1.3 CALM 0 0 0 0 1014.5 1014.2 0.0
11/07:30am 17.3 19.5 16.5 95 0.5 CALM 0 0 0 0 1014.1 1013.8 0.0
11/07:00am 15.3 17.0 15.1 99 0.1 CALM 0 0 0 0 1013.8 1013.5 0.0
11/06:30am 15.2 16.8 15.0 99 0.1 CALM 0 0 0 0 1013.4 1013.1 0.0
11/06:00am 14.9 16.3 14.4 97 0.3 CALM 0 6 0 3 1013.0 1012.7 0.0
11/05:30am 15.3 16.2 15.0 98 0.2 SW 4 6 2 3 1012.8 1012.5 0.0
11/05:00am 15.8 16.9 15.6 99 0.1 SW 4 7 2 4 1012.7 1012.4 0.0
11/04:30am 15.4 16.6 14.8 96 0.3 SW 2 6 1 3 1012.5 1012.2 0.0
11/04:00am 15.6 15.9 15.0 96 0.3 SW 7 9 4 5 1012.5 1012.2 0.0
11/03:30am 16.3 16.9 15.7 96 0.4 SW 7 9 4 5 1012.5 1012.2 0.0
11/03:00am 16.7 17.5 15.9 95 0.5 SW 6 7 3 4 1012.6 1012.3 0.0
11/02:30am 16.9 17.5 15.9 94 0.6 SW 7 11 4 6 1012.7 1012.4 0.0
11/02:00am 17.3 18.2 16.2 93 0.7 SSW 6 9 3 5 1012.8 1012.5 0.0
11/01:30am 17.5 18.2 16.2 92 0.8 SSW 7 7 4 4 1013.0 1012.7 0.0
11/01:00am 17.8 18.5 16.1 90 1.0 SSW 7 11 4 6 1013.2 1012.9 0.0
11/12:30am 18.4 18.8 16.4 88 1.2 SSW 9 9 5 5 1013.3 1013.0 0.0
11/12:00am 18.8 19.5 16.2 85 1.6 S 7 9 4 5 1013.5 1013.2 0.0
 
Date/Time
EDT
Temp
°C
App
Temp
°C
Dew
Point
Rel
Hum
%
Delta-T
°C
Wind Press
QNH
hPa
Press
MSL
hPa
Rain
since 9 am
mm
Dir
 
Spd
km/h
Gust
km/h
Spd
kts
Gust
kts
10/11:30pm 19.3 19.8 16.5 84 1.7 S 9 11 5 6 1013.6 1013.3 0.0
10/11:00pm 19.6 19.7 16.4 82 1.9 S 11 13 6 7 1013.6 1013.3 0.0
10/10:30pm 19.9 19.9 16.2 79 2.2 SSW 11 13 6 7 1013.8 1013.5 0.0
10/10:00pm 20.4 20.8 16.2 77 2.5 S 9 15 5 8 1013.8 1013.5 0.0
10/09:30pm 21.2 21.3 16.4 74 2.9 SSW 11 13 6 7 1013.7 1013.4 0.0
10/09:00pm 21.5 21.9 16.2 72 3.2 S 9 13 5 7 1013.4 1013.1 0.0
10/08:30pm 21.8 22.2 16.3 71 3.3 SSE 9 13 5 7 1013.1 1012.8 0.0
10/08:00pm 23.5 24.0 16.5 65 4.3 SE 9 17 5 9 1012.9 1012.6 0.0
10/07:30pm 24.6 23.6 16.6 61 4.9 E 17 24 9 13 1012.4 1012.1 0.0
10/07:00pm 26.0 24.5 16.8 57 5.7 E 20 28 11 15 1012.2 1011.9 0.0
10/06:30pm 27.2 25.8 17.1 54 6.3 E 20 26 11 14 1011.7 1011.4 0.0
10/06:00pm 28.0 27.5 17.8 54 6.5 ESE 17 22 9 12 1011.7 1011.4 0.0
10/05:30pm 28.7 27.8 14.9 43 8.4 E 13 17 7 9 1011.5 1011.2 0.0
10/05:00pm 29.0 28.5 14.8 42 8.6 ESE 11 19 6 10 1011.5 1011.2 0.0
10/04:30pm 29.2 29.0 14.6 41 8.9 NE 9 17 5 9 1011.8 1011.5 0.0
10/04:00pm 28.7 28.3 15.2 43 8.3 ESE 11 22 6 12 1012.1 1011.8 0.0
10/03:30pm 28.3 27.7 15.6 46 7.8 NE 13 20 7 11 1012.4 1012.1 0.0
10/03:00pm 28.5 29.1 15.8 46 7.8 ENE 7 19 4 10 1012.8 1012.5 0.0
10/02:30pm 28.4 28.8 16.3 47 7.5 NE 9 19 5 10 1013.2 1012.9 0.0
10/02:00pm 27.6 27.7 15.6 48 7.4 N 9 19 5 10 1013.6 1013.3 0.0
10/01:30pm 27.7 28.6 16.6 50 6.9 ENE 7 11 4 6 1014.1 1013.8 0.0
10/01:00pm 26.8 27.3 14.9 48 7.2 NNE 6 17 3 9 1014.4 1014.1 0.0
10/12:30pm 26.7 27.6 16.6 54 6.3 WSW 7 11 4 6 1014.9 1014.6 0.0
10/12:00pm 26.8 25.9 15.8 51 6.7 NNE 15 20 8 11 1015.4 1015.1 0.0
10/11:30am 25.4 25.6 14.8 52 6.4 ENE 7 15 4 8 1015.7 1015.4 0.0
10/11:00am 24.7 26.0 16.2 59 5.2 SW 4 7 2 4 1015.9 1015.6 0.0
10/10:30am 24.0 25.5 15.8 60 5.0 ENE 2 7 1 4 1016.1 1015.8 0.0
10/10:00am 23.3 23.9 16.8 67 4.0 NE 9 13 5 7 1016.2 1015.9 0.0
10/09:30am 23.4 23.8 16.4 64 4.3 NE 9 17 5 9 1016.4 1016.1 0.0
10/09:00am 23.0 24.3 17.0 69 3.7 SE 6 7 3 4 1016.3 1016.0 0.0
10/08:30am 21.0 23.9 18.2 84 1.7 CALM 0 6 0 3 1016.3 1016.0 0.0
10/08:00am 18.8 20.4 17.8 94 0.6 SSE 6 7 3 4 1016.3 1016.0 0.0
10/07:30am 17.5 20.0 17.3 99 0.1 CALM 0 6 0 3 1016.3 1016.0 0.0
10/07:00am 15.5 17.2 15.3 99 0.1 CALM 0 0 0 0 1016.1 1015.8 0.0
10/06:30am 15.3 17.0 15.1 99 0.1 CALM 0 0 0 0 1016.0 1015.7 0.0
10/06:00am 16.5 17.3 16.3 99 0.1 SSE 7 19 4 10 1015.8 1015.5 0.0
10/05:30am 16.2 17.4 16.0 99 0.1 SE 4 7 2 4 1015.7 1015.4 0.0
10/05:00am 16.5 17.5 16.3 99 0.1 SSW 6 7 3 4 1015.6 1015.3 0.0
10/04:30am 16.1 16.9 15.9 99 0.1 SW 6 9 3 5 1015.6 1015.3 0.0
10/04:00am 16.3 18.3 16.0 98 0.2 CALM 0 0 0 0 1015.6 1015.3 0.0
10/03:30am 16.8 19.0 16.6 99 0.1 CALM 0 0 0 0 1015.9 1015.6 0.0
10/03:00am 16.2 17.4 15.9 98 0.2 SW 4 7 2 4 1016.2 1015.9 0.0
10/02:30am 16.9 19.1 16.6 98 0.2 CALM 0 0 0 0 1016.5 1016.2 0.0
10/02:00am 16.8 18.2 16.3 97 0.3 WSW 4 9 2 5 1016.7 1016.5 0.0
10/01:30am 17.2 19.5 16.7 97 0.3 CALM 0 0 0 0 1017.0 1016.8 0.0
10/01:00am 17.4 19.8 16.9 97 0.3 CALM 0 0 0 0 1017.2 1017.0 0.0
10/12:30am 17.6 20.0 17.1 97 0.3 CALM 0 0 0 0 1017.5 1017.3 0.0
10/12:00am 18.0 20.5 17.2 95 0.5 CALM 0 0 0 0 1017.9 1017.7 0.0

Other Formats:

Comma delimited format used in spreadsheet applications
http://www.bom.gov.au/fwo/IDN60801/IDN60801.95771.axf

JavaScript Object Notation format (JSON) in row-major order
http://www.bom.gov.au/fwo/IDN60801/IDN60801.95771.json